createdAt,value
2022-11-18T00:02:19.334Z,2.50
2022-11-18T00:07:21.601Z,2.50
2022-11-18T00:12:42.410Z,3.38
2022-11-18T00:17:44.409Z,3.43
2022-11-18T00:22:46.471Z,2.83
2022-11-18T00:27:48.480Z,2.72
2022-11-18T00:32:50.537Z,2.80
2022-11-18T00:37:52.874Z,3.15
2022-11-18T00:42:56.264Z,2.88
2022-11-18T00:47:58.422Z,2.60
2022-11-18T00:53:00.436Z,3.13
2022-11-18T00:58:02.441Z,3.10
2022-11-18T01:03:04.497Z,3.47
2022-11-18T01:08:08.947Z,3.28
2022-11-18T01:13:19.303Z,3.40
2022-11-18T01:18:27.276Z,3.42
2022-11-18T01:23:30.004Z,3.08
2022-11-18T01:28:32.537Z,3.60
2022-11-18T01:33:34.701Z,3.13
2022-11-18T01:38:36.697Z,4.03
2022-11-18T01:43:52.434Z,3.70
2022-11-18T01:49:04.360Z,3.85
2022-11-18T01:54:11.743Z,4.28
2022-11-18T01:59:17.256Z,3.83
2022-11-18T02:04:19.667Z,3.38
2022-11-18T02:09:22.559Z,3.88
2022-11-18T02:14:33.770Z,4.03
2022-11-18T02:19:47.870Z,3.47
2022-11-18T02:25:17.921Z,3.50
2022-11-18T02:30:20.168Z,3.90
2022-11-18T02:35:45.377Z,3.50
2022-11-18T02:40:52.320Z,3.65
2022-11-18T02:46:00.606Z,3.17
2022-11-18T02:51:06.425Z,3.25
2022-11-18T02:56:10.060Z,2.95
2022-11-18T03:01:21.517Z,2.97
2022-11-18T03:06:39.661Z,3.20
2022-11-18T03:12:03.983Z,3.38
2022-11-18T03:17:24.374Z,3.22
2022-11-18T03:22:30.788Z,3.10
2022-11-18T03:27:41.926Z,3.45
2022-11-18T03:32:47.668Z,3.72
2022-11-18T03:37:54.948Z,3.33
2022-11-18T03:43:02.781Z,3.10
2022-11-18T03:48:17.217Z,3.25
2022-11-18T03:53:21.303Z,2.72
2022-11-18T03:58:52.625Z,3.40
2022-11-18T04:03:54.914Z,2.95
2022-11-18T04:09:01.607Z,3.28
2022-11-18T04:14:07.141Z,3.20
2022-11-18T04:19:09.436Z,3.63
2022-11-18T04:24:11.509Z,3.10
2022-11-18T04:29:13.591Z,3.13
2022-11-18T04:34:15.828Z,3.28
2022-11-18T04:39:20.736Z,3.28
2022-11-18T04:44:28.432Z,3.10
2022-11-18T04:49:30.814Z,3.50
2022-11-18T04:54:32.917Z,3.40
2022-11-18T04:59:39.501Z,2.97
2022-11-18T05:04:42.320Z,3.00
2022-11-18T05:09:44.434Z,3.30
2022-11-18T05:14:50.072Z,3.35
2022-11-18T05:19:53.088Z,3.40
2022-11-18T05:24:55.185Z,3.20
2022-11-18T05:29:57.359Z,3.05
2022-11-18T05:34:59.494Z,3.15
2022-11-18T05:40:01.608Z,3.55
2022-11-18T05:45:04.314Z,3.10
2022-11-18T05:50:07.003Z,3.17
2022-11-18T05:55:12.134Z,3.50
2022-11-18T06:00:14.812Z,3.35
2022-11-18T06:05:18.514Z,3.50
2022-11-18T06:10:32.244Z,3.42
2022-11-18T06:15:38.694Z,3.78
2022-11-18T06:20:41.659Z,3.67
2022-11-18T06:25:44.136Z,4.10
2022-11-18T06:30:46.205Z,3.90
2022-11-18T06:35:48.318Z,4.03
2022-11-18T06:40:50.457Z,4.32
2022-11-18T06:46:11.095Z,4.07
2022-11-18T06:51:13.731Z,4.57
2022-11-18T06:56:17.308Z,3.90
2022-11-18T07:01:21.914Z,4.13
2022-11-18T07:06:26.269Z,3.55
2022-11-18T07:11:28.873Z,4.45
2022-11-18T07:16:30.870Z,4.10
2022-11-18T07:21:32.848Z,4.18
2022-11-18T07:26:35.771Z,4.28
2022-11-18T07:31:39.588Z,4.43
2022-11-18T07:36:42.017Z,4.88
2022-11-18T07:41:44.076Z,4.60
2022-11-18T07:46:46.159Z,4.28
2022-11-18T07:51:48.287Z,4.05
2022-11-18T07:56:50.509Z,4.68
2022-11-18T08:01:52.618Z,4.50
2022-11-18T08:06:54.998Z,4.22
2022-11-18T08:11:57.296Z,4.75
2022-11-18T08:16:59.282Z,3.83
2022-11-18T08:22:01.385Z,4.65
2022-11-18T08:27:03.531Z,4.70
2022-11-18T08:32:06.501Z,4.72
2022-11-18T08:37:08.489Z,4.72
2022-11-18T08:42:10.787Z,4.38
2022-11-18T08:47:12.822Z,5.35
2022-11-18T08:52:14.908Z,4.88
2022-11-18T08:57:16.937Z,4.93
2022-11-18T09:02:22.637Z,5.55
2022-11-18T09:07:24.768Z,5.30
2022-11-18T09:12:27.154Z,4.82
2022-11-18T09:17:29.214Z,4.78
2022-11-18T09:22:31.250Z,4.25
2022-11-18T09:27:33.373Z,5.10
2022-11-18T09:32:35.506Z,5.45
2022-11-18T09:37:37.623Z,3.90
2022-11-18T09:42:56.200Z,4.30
2022-11-18T09:48:00.646Z,4.30
2022-11-18T09:53:15.832Z,4.20
2022-11-18T09:58:35.125Z,4.55
2022-11-18T10:03:38.683Z,4.03
2022-11-18T10:09:01.837Z,3.60
2022-11-18T10:14:23.093Z,4.25
2022-11-18T10:19:51.916Z,4.07
2022-11-18T10:24:58.301Z,4.30
2022-11-18T10:30:01.419Z,3.75
2022-11-18T10:35:03.556Z,4.20
2022-11-18T10:40:06.520Z,4.00
2022-11-18T10:45:28.175Z,4.50
2022-11-18T10:50:39.365Z,4.75
2022-11-18T10:55:41.399Z,3.90
2022-11-18T11:00:47.605Z,3.75
2022-11-18T11:06:13.704Z,4.40
2022-11-18T11:11:26.606Z,4.20
2022-11-18T11:16:30.599Z,4.00
2022-11-18T11:21:32.670Z,4.95
2022-11-18T11:32:14.555Z,3.92
2022-11-18T11:37:29.081Z,4.72
2022-11-18T11:42:37.076Z,4.50
2022-11-18T11:47:47.812Z,4.30
2022-11-18T11:53:17.266Z,4.93
2022-11-18T11:58:22.295Z,4.68
2022-11-18T12:03:47.328Z,4.63
2022-11-18T12:09:08.047Z,5.15
2022-11-18T12:14:39.570Z,4.38
2022-11-18T12:19:41.964Z,5.05
2022-11-18T12:24:44.393Z,4.57
2022-11-18T12:29:49.566Z,4.88
2022-11-18T12:35:04.615Z,6.00
2022-11-18T12:40:08.647Z,5.57
2022-11-18T12:45:43.330Z,5.90
2022-11-18T12:50:59.598Z,6.20
2022-11-18T12:56:21.536Z,6.45
2022-11-18T13:01:26.947Z,6.15
2022-11-18T13:06:33.011Z,5.82
2022-11-18T13:11:46.385Z,5.72
2022-11-18T13:17:07.527Z,4.60
2022-11-18T13:22:36.526Z,4.97
2022-11-18T13:28:05.508Z,5.55
2022-11-18T13:33:11.407Z,6.70
2022-11-18T13:38:28.405Z,5.65
2022-11-18T13:43:32.347Z,5.00
2022-11-18T13:48:40.941Z,4.65
2022-11-18T13:53:44.436Z,4.97
2022-11-18T14:04:30.767Z,4.95
2022-11-18T14:09:32.742Z,5.85
2022-11-18T14:14:38.250Z,5.63
2022-11-18T14:19:41.652Z,5.15
2022-11-18T14:24:44.490Z,5.13
2022-11-18T14:29:50.470Z,5.28
2022-11-18T14:35:01.980Z,5.45
2022-11-18T14:40:04.222Z,5.60
2022-11-18T14:45:06.447Z,5.25
2022-11-18T14:50:12.881Z,7.00
2022-11-18T14:55:14.940Z,8.25
2022-11-18T15:00:17.704Z,10.85
2022-11-18T15:05:19.889Z,8.35
2022-11-18T15:10:21.866Z,6.85
2022-11-18T15:15:23.929Z,6.82
2022-11-18T15:20:26.060Z,5.30
2022-11-18T15:25:28.166Z,7.15
2022-11-18T15:30:30.218Z,7.60
2022-11-18T15:35:32.214Z,6.70
2022-11-18T15:40:35.043Z,5.65
2022-11-18T15:45:37.065Z,5.97
2022-11-18T15:50:39.082Z,6.38
2022-11-18T15:55:41.130Z,6.68
2022-11-18T16:00:45.105Z,6.82
2022-11-18T16:05:47.438Z,8.52
2022-11-18T16:11:13.774Z,7.53
2022-11-18T16:16:25.201Z,8.20
2022-11-18T16:21:28.463Z,8.18
2022-11-18T16:26:31.580Z,9.52
2022-11-18T16:31:40.291Z,8.43
2022-11-18T16:36:44.572Z,9.57
2022-11-18T16:41:46.708Z,10.25
2022-11-18T16:46:53.673Z,10.68
2022-11-18T16:51:56.942Z,9.68
2022-11-18T16:56:59.488Z,9.52
2022-11-18T17:02:02.097Z,9.35
2022-11-18T17:07:05.292Z,9.13
2022-11-18T17:12:07.671Z,9.85
2022-11-18T17:17:09.859Z,9.05
2022-11-18T17:22:11.974Z,13.68
2022-11-18T17:27:13.997Z,9.23
2022-11-18T17:32:16.632Z,10.02
2022-11-18T17:37:18.599Z,10.85
2022-11-18T17:42:23.326Z,10.52
2022-11-18T17:47:25.505Z,11.10
2022-11-18T17:52:27.471Z,11.98
2022-11-18T17:57:32.219Z,12.52
2022-11-18T18:02:34.342Z,14.75
2022-11-18T18:07:36.457Z,14.50
2022-11-18T18:12:57.057Z,14.90
2022-11-18T18:17:59.798Z,14.00
2022-11-18T18:23:01.891Z,14.02
2022-11-18T18:28:06.101Z,15.25
2022-11-18T18:33:08.086Z,18.27
2022-11-18T18:38:10.149Z,15.50
2022-11-18T18:43:12.694Z,15.43
2022-11-18T18:48:14.693Z,16.63
2022-11-18T18:53:16.785Z,17.35
2022-11-18T18:58:18.799Z,18.30
2022-11-18T19:03:20.892Z,18.65
2022-11-18T19:08:22.923Z,18.60
2022-11-18T19:13:28.367Z,19.65
2022-11-18T19:18:34.598Z,19.17
2022-11-18T19:23:36.583Z,19.70
2022-11-18T19:28:38.675Z,18.75
2022-11-18T19:33:40.740Z,19.38
2022-11-18T19:38:42.932Z,21.08
2022-11-18T19:43:45.217Z,23.77
2022-11-18T19:48:48.587Z,22.67
2022-11-18T19:53:57.008Z,19.63
2022-11-18T19:59:01.830Z,20.23
2022-11-18T20:04:05.561Z,21.13
2022-11-18T20:09:09.303Z,22.15
2022-11-18T20:14:12.454Z,20.52
2022-11-18T20:19:17.166Z,20.70
2022-11-18T20:24:19.441Z,19.67
2022-11-18T20:29:21.882Z,19.10
2022-11-18T20:34:24.292Z,19.30
2022-11-18T20:39:26.491Z,19.48
2022-11-18T20:44:28.656Z,20.75
2022-11-18T20:49:30.742Z,22.45
2022-11-18T20:54:33.752Z,22.15
2022-11-18T20:59:35.900Z,21.92
2022-11-18T21:04:38.412Z,21.42
2022-11-18T21:09:40.655Z,21.63
2022-11-18T21:14:42.759Z,21.58
2022-11-18T21:19:52.771Z,23.10
2022-11-18T21:24:55.053Z,23.88
2022-11-18T21:29:57.223Z,25.02
2022-11-18T21:34:59.403Z,25.15
2022-11-18T21:40:01.595Z,24.90
2022-11-18T21:45:03.818Z,26.70
2022-11-18T21:50:06.401Z,26.83
2022-11-18T21:55:08.628Z,27.63
2022-11-18T22:00:11.039Z,27.58
2022-11-18T22:05:15.081Z,27.58
2022-11-18T22:10:18.837Z,26.60
2022-11-18T22:15:20.885Z,27.25
2022-11-18T22:20:22.963Z,25.08
2022-11-18T22:25:24.955Z,25.70
2022-11-18T22:30:27.013Z,16.67
2022-11-18T22:35:29.096Z,12.73
2022-11-18T22:40:31.198Z,10.93
2022-11-18T22:45:33.222Z,11.18
2022-11-18T22:50:35.201Z,10.45
2022-11-18T22:55:37.282Z,11.23
2022-11-18T23:00:39.316Z,10.68
2022-11-18T23:05:45.873Z,11.50
2022-11-18T23:10:48.532Z,11.95
2022-11-18T23:15:50.485Z,10.95
2022-11-18T23:20:53.071Z,10.50
2022-11-18T23:25:55.716Z,11.32
2022-11-18T23:31:08.115Z,12.38
2022-11-18T23:36:12.028Z,11.07
2022-11-18T23:41:16.122Z,10.85
2022-11-18T23:46:19.425Z,11.05
2022-11-18T23:51:23.307Z,11.05
2022-11-18T23:56:27.186Z,11.63
